Terminal Aerodrome Forecast
Issued by NWS Wichita, KS

Home | Current Version | Previous Version | Graphics & Text | Print | Product List | Glossary On
Versions: 1 2 3 4 5 6 7 8 9 10 11 12 13 14 15 16 17 18
000
FTUS43 KICT 292338
TAFICT
TAF
KICT 292338Z 3000/3024 04010KT P6SM VCSH SCT050 BKN090
     FM300200 07008KT P6SM SCT100
     FM300900 08006KT P6SM -SHRA VCSH OVC060
     FM301500 10008KT P6SM SCT100 SCT200=

USA.gov is the U.S. government's official web portal to all federal, state and local government web resources and services.